Time;durP1;ratioP1;P1;durP2;ratioP2;P2;SDS_P1;SDS_P2;PMS_P1;PMS_P2;Temp;Humidity;BMP_temperature;BMP_pressure;BME280_temperature;BME280_humidity;BME280_pressure;Samples;Min_cycle;Max_cycle;Signal;HPM_P1;HPM_P2
2023/02/26 00:01:16;;;;;;;3.65;1.95;;;;;;;16.85;53.14;102053.63;6254203;22;20459;-79
2023/02/26 00:03:42;;;;;;;6.50;2.03;;;;;;;16.88;52.97;102064.91;6254170;22;20004;-79
2023/02/26 00:06:08;;;;;;;6.35;2.30;;;;;;;16.87;53.24;102066.63;6228605;22;19999;-79
2023/02/26 00:08:34;;;;;;;4.68;2.10;;;;;;;16.86;53.19;102075.28;6280701;22;20042;-79
2023/02/26 00:11:03;;;;;;;4.50;2.20;;;;;;;16.86;53.07;102086.56;6280494;22;20020;-79
2023/02/26 00:13:28;;;;;;;4.80;2.20;;;;;;;16.85;52.74;102097.81;6253700;22;20004;-79
2023/02/26 00:16:00;;;;;;;5.97;2.00;;;;;;;16.86;53.00;102096.09;6227829;22;20101;-79
2023/02/26 00:18:26;;;;;;;4.28;2.05;;;;;;;16.85;52.94;102099.53;6227332;22;20054;-79
2023/02/26 00:20:52;;;;;;;4.00;2.10;;;;;;;16.85;53.20;102102.13;6227283;22;20012;-79
2023/02/26 00:23:18;;;;;;;3.88;2.05;;;;;;;16.85;52.73;102091.72;6253005;22;20014;-79
2023/02/26 00:25:44;;;;;;;3.35;1.80;;;;;;;16.86;52.69;102104.75;6227096;22;20336;-79
2023/02/26 00:28:10;;;;;;;4.10;2.17;;;;;;;16.86;52.59;102103.88;6277963;22;20018;-79
2023/02/26 00:30:36;;;;;;;3.85;1.75;;;;;;;16.84;52.56;102103.00;6227040;22;20016;-79
2023/02/26 00:33:02;;;;;;;4.40;2.05;;;;;;;16.85;52.36;102110.81;6277652;22;20340;-79
2023/02/26 00:35:28;;;;;;;3.70;2.10;;;;;;;16.85;52.43;102110.81;6212301;22;20019;-78
2023/02/26 00:38:02;;;;;;;4.85;2.05;;;;;;;16.84;52.63;102114.25;6282262;22;20094;-79
2023/02/26 00:40:44;;;;;;;3.42;1.58;;;;;;;16.86;52.30;102125.56;6282390;22;20033;-78
2023/02/26 00:43:21;;;;;;;4.35;1.88;;;;;;;16.86;52.42;102128.16;6282332;22;20033;-79
2023/02/26 00:46:01;;;;;;;3.08;1.88;;;;;;;16.85;52.53;102134.22;6309708;22;20011;-79
2023/02/26 00:48:51;;;;;;;3.72;1.77;;;;;;;16.85;52.52;102135.91;6308408;22;20368;-79
2023/02/26 00:51:46;;;;;;;5.50;1.95;;;;;;;16.85;52.31;102135.91;6282571;22;20003;-79
2023/02/26 00:54:20;;;;;;;2.92;1.45;;;;;;;16.83;52.33;102138.53;6282666;22;20003;-79
2023/02/26 00:56:45;;;;;;;3.45;1.60;;;;;;;16.83;52.13;102143.72;6282464;22;20339;-79
2023/02/26 00:59:11;;;;;;;3.83;1.60;;;;;;;16.83;51.95;102142.81;6282817;22;20086;-79
2023/02/26 01:01:36;;;;;;;3.63;1.73;;;;;;;16.83;52.34;102148.03;6282297;22;20094;-79
2023/02/26 01:04:02;;;;;;;2.63;1.60;;;;;;;16.83;51.90;102145.44;6257196;22;20015;-79
2023/02/26 01:06:31;;;;;;;2.67;1.60;;;;;;;16.84;52.18;102147.19;6282789;22;20011;-79
2023/02/26 01:09:14;;;;;;;2.67;1.48;;;;;;;16.83;52.07;102150.63;6308286;22;20003;-79
2023/02/26 01:11:40;;;;;;;4.35;1.45;;;;;;;16.83;52.03;102163.63;6308813;22;20386;-79
2023/02/26 01:14:06;;;;;;;3.15;1.55;;;;;;;16.82;51.96;102151.50;6282328;22;20007;-79
2023/02/26 01:16:40;;;;;;;4.00;1.42;;;;;;;16.83;52.07;102163.63;6256831;22;20004;-79
2023/02/26 01:19:24;;;;;;;2.72;1.40;;;;;;;16.83;51.83;102172.31;6284407;22;20007;-79
2023/02/26 01:21:59;;;;;;;2.83;1.45;;;;;;;16.82;51.62;102170.56;6282428;22;20007;-79
2023/02/26 01:24:26;;;;;;;2.83;1.60;;;;;;;16.83;51.86;102168.81;6309809;22;19999;-79
2023/02/26 01:26:51;;;;;;;3.35;1.60;;;;;;;16.82;51.64;102180.94;6293044;22;20029;-80
2023/02/26 01:29:17;;;;;;;3.05;1.42;;;;;;;16.81;52.07;102179.22;6264428;22;20015;-79
2023/02/26 01:32:10;;;;;;;2.78;1.50;;;;;;;16.81;51.61;102179.22;6261284;22;20070;-79
2023/02/26 01:34:40;;;;;;;4.97;1.60;;;;;;;16.81;51.63;102187.03;6317010;22;20074;-79
2023/02/26 01:37:26;;;;;;;3.63;1.33;;;;;;;16.81;51.77;102178.31;6295019;22;20035;-79
2023/02/26 01:40:11;;;;;;;2.97;1.27;;;;;;;16.81;51.64;102180.91;6326623;22;19999;-79
2023/02/26 01:42:41;;;;;;;2.80;1.27;;;;;;;16.79;51.61;102182.63;6297773;22;20431;-79
2023/02/26 01:45:15;;;;;;;2.72;1.20;;;;;;;16.80;51.53;102184.38;6294063;22;20003;-78
2023/02/26 01:48:03;;;;;;;2.95;1.50;;;;;;;16.81;51.59;102180.91;6287314;22;20026;-79
2023/02/26 01:50:33;;;;;;;3.65;1.55;;;;;;;16.81;51.69;102191.31;6285885;22;20378;-79
2023/02/26 01:53:21;;;;;;;2.42;1.30;;;;;;;16.79;51.48;102193.88;6310574;22;20003;-78
2023/02/26 01:55:51;;;;;;;1.98;1.15;;;;;;;16.80;51.42;102190.44;6283827;22;20020;-79
2023/02/26 01:58:19;;;;;;;2.30;1.42;;;;;;;16.82;51.30;102198.28;6284588;22;20102;-78
2023/02/26 02:00:44;;;;;;;2.25;1.30;;;;;;;16.82;51.45;102199.16;6284422;22;20010;-79
2023/02/26 02:03:10;;;;;;;3.13;1.40;;;;;;;16.83;51.22;102200.91;6282642;22;20402;-79
2023/02/26 02:05:57;;;;;;;2.80;1.25;;;;;;;16.84;51.49;102212.19;6282287;22;19995;-79
2023/02/26 02:08:23;;;;;;;2.58;1.25;;;;;;;16.85;51.18;102208.72;6282897;22;20022;-79
2023/02/26 02:10:50;;;;;;;2.28;1.33;;;;;;;16.86;50.81;102213.09;6283043;22;20003;-78
2023/02/26 02:13:32;;;;;;;2.22;1.20;;;;;;;16.86;50.99;102211.34;6257747;22;20075;-79
2023/02/26 02:16:19;;;;;;;2.67;1.20;;;;;;;16.86;51.11;102211.34;6310768;22;20003;-78
2023/02/26 02:19:34;;;;;;;2.67;1.10;;;;;;;16.89;51.01;102214.84;6308672;22;20022;-79
2023/02/26 02:22:27;;;;;;;1.92;1.00;;;;;;;16.90;50.77;102220.09;6243373;22;20014;-79
2023/02/26 02:25:30;;;;;;;2.97;1.42;;;;;;;16.90;50.74;102224.38;6310015;22;19999;-79
2023/02/26 02:28:28;;;;;;;1.83;1.10;;;;;;;16.91;51.06;102231.34;6281978;22;20011;-79
2023/02/26 02:31:32;;;;;;;2.85;1.20;;;;;;;16.93;50.72;102237.47;6235683;22;20030;-79
2023/02/26 02:33:57;;;;;;;2.38;1.15;;;;;;;16.92;50.56;102244.38;6235322;22;20034;-79
2023/02/26 02:36:38;;;;;;;2.88;1.23;;;;;;;16.92;50.90;102238.28;6281426;22;20428;-79
2023/02/26 02:39:27;;;;;;;3.00;1.00;;;;;;;16.93;50.74;102248.72;6281863;22;20034;-79
2023/02/26 02:41:58;;;;;;;2.40;1.02;;;;;;;16.94;50.51;102244.38;6281586;22;20098;-79
2023/02/26 02:44:26;;;;;;;1.55;0.88;;;;;;;16.93;50.51;102238.31;6312599;22;20370;-79
2023/02/26 02:46:55;;;;;;;2.85;1.10;;;;;;;16.95;50.43;102252.22;6310101;22;19995;-79
2023/02/26 02:49:42;;;;;;;1.60;0.88;;;;;;;16.94;50.42;102247.88;6282059;22;20010;-80
2023/02/26 02:52:15;;;;;;;2.22;1.02;;;;;;;16.95;50.24;102251.34;6285279;22;20010;-79
2023/02/26 02:54:56;;;;;;;1.55;1.00;;;;;;;16.96;50.42;102256.59;6291929;22;20018;-80
2023/02/26 02:57:40;;;;;;;2.35;1.10;;;;;;;16.95;50.40;102252.22;6288064;22;20010;-79
2023/02/26 03:00:10;;;;;;;2.53;1.00;;;;;;;16.95;50.37;102257.41;6285231;22;20003;-79
2023/02/26 03:02:47;;;;;;;2.53;1.00;;;;;;;16.94;50.31;102260.00;6284086;22;20075;-79
2023/02/26 03:05:13;;;;;;;1.80;0.93;;;;;;;16.93;50.51;102261.72;6310391;22;20362;-80
2023/02/26 03:07:53;;;;;;;1.20;0.80;;;;;;;16.92;50.44;102265.19;6307899;22;20018;-80
2023/02/26 03:10:18;;;;;;;3.25;0.90;;;;;;;16.91;50.44;102260.81;6309556;22;19999;-80
2023/02/26 03:12:44;;;;;;;2.33;1.00;;;;;;;16.89;50.54;102259.06;6256042;22;20011;-80
2023/02/26 03:15:10;;;;;;;2.22;0.88;;;;;;;16.86;50.64;102258.16;6309357;22;20050;-80
2023/02/26 03:17:40;;;;;;;1.90;0.80;;;;;;;16.87;50.55;102266.81;6281655;22;20011;-80
2023/02/26 03:20:17;;;;;;;1.63;0.93;;;;;;;16.87;50.75;102261.63;6281401;22;20052;-80
2023/02/26 03:23:01;;;;;;;3.42;1.10;;;;;;;16.86;50.55;102267.69;6281295;22;20435;-80
2023/02/26 03:25:37;;;;;;;1.77;0.93;;;;;;;16.85;50.49;102266.81;6281305;22;20364;-80
2023/02/26 03:28:15;;;;;;;4.35;0.90;;;;;;;16.85;50.53;102268.53;6308829;22;20012;-80
2023/02/26 03:30:53;;;;;;;2.92;0.90;;;;;;;16.85;50.57;102265.91;6280784;22;20007;-80
2023/02/26 03:33:26;;;;;;;1.73;0.90;;;;;;;16.83;50.51;102270.22;6281186;22;20007;-80
2023/02/26 03:36:10;;;;;;;2.22;0.90;;;;;;;16.84;50.33;102279.78;6280371;22;20018;-80
2023/02/26 03:39:00;;;;;;;2.33;1.00;;;;;;;16.82;50.53;102284.94;6281084;22;20017;-80
2023/02/26 03:41:33;;;;;;;1.88;0.80;;;;;;;16.83;50.42;102288.41;6280917;22;19999;-81
2023/02/26 03:44:08;;;;;;;2.25;0.90;;;;;;;16.83;50.48;102296.22;6281179;22;20455;-80
2023/02/26 03:46:47;;;;;;;3.05;1.05;;;;;;;16.82;50.13;102303.16;6281669;22;20074;-80
2023/02/26 03:49:20;;;;;;;2.08;1.05;;;;;;;16.80;50.48;102294.44;6282749;22;20030;-80
2023/02/26 03:51:46;;;;;;;2.27;0.90;;;;;;;16.81;50.48;102295.31;6282447;22;20082;-80
2023/02/26 03:54:21;;;;;;;1.65;0.80;;;;;;;16.81;50.16;102297.91;6257346;22;20034;-80
2023/02/26 03:56:47;;;;;;;1.73;0.80;;;;;;;16.82;50.09;102300.53;6283189;22;20003;-80
2023/02/26 03:59:15;;;;;;;2.22;0.90;;;;;;;16.83;49.95;102296.22;6258468;22;20015;-80
2023/02/26 04:01:50;;;;;;;1.60;0.80;;;;;;;16.84;49.93;102293.66;6258616;22;20011;-81
2023/02/26 04:04:49;;;;;;;3.20;0.90;;;;;;;16.85;49.82;102307.53;6284431;22;20335;-81
2023/02/26 04:07:17;;;;;;;1.67;0.80;;;;;;;16.86;50.06;102309.28;6283952;22;20086;-80
2023/02/26 04:09:45;;;;;;;1.80;0.80;;;;;;;16.89;49.55;102303.25;6288692;22;19999;-81
2023/02/26 04:12:12;;;;;;;1.98;0.85;;;;;;;16.89;49.90;102308.47;6264567;22;20007;-81
2023/02/26 04:14:38;;;;;;;2.20;1.00;;;;;;;16.90;49.70;102318.91;6289566;22;20037;-81
2023/02/26 04:17:04;;;;;;;2.40;0.90;;;;;;;16.90;49.72;102318.91;6304740;22;19992;-81
2023/02/26 04:19:29;;;;;;;1.50;0.70;;;;;;;16.90;49.50;102331.91;6302247;22;20313;-81
2023/02/26 04:21:55;;;;;;;2.42;0.98;;;;;;;16.92;49.63;102339.69;6291833;22;20427;-81
2023/02/26 04:24:20;;;;;;;3.00;0.90;;;;;;;16.91;49.22;102335.38;6263328;22;20019;-81
2023/02/26 04:26:46;;;;;;;1.50;0.70;;;;;;;16.90;49.75;102339.69;6287807;22;20056;-81
2023/02/26 04:29:11;;;;;;;2.03;0.80;;;;;;;16.90;49.56;102341.41;6286763;22;20007;-81
2023/02/26 04:31:37;;;;;;;1.83;0.75;;;;;;;16.88;49.52;102344.00;6261768;22;20018;-81
2023/02/26 04:34:02;;;;;;;2.00;0.75;;;;;;;16.88;49.69;102353.53;6287184;22;20011;-81
2023/02/26 04:36:28;;;;;;;3.45;0.80;;;;;;;16.85;49.83;102342.22;6286471;22;20011;-81
2023/02/26 04:38:53;;;;;;;1.80;0.95;;;;;;;16.84;49.75;102347.38;6261310;22;20003;-81
2023/02/26 04:41:19;;;;;;;3.47;0.88;;;;;;;16.84;49.67;102357.78;6235488;22;20007;-81
2023/02/26 04:43:44;;;;;;;1.25;0.60;;;;;;;16.82;49.86;102352.53;6260264;22;20007;-80
2023/02/26 04:46:10;;;;;;;2.22;0.70;;;;;;;16.83;49.73;102358.63;6260536;22;20011;-81
2023/02/26 04:48:35;;;;;;;1.52;0.80;;;;;;;16.83;49.65;102366.41;6285686;22;20019;-81
2023/02/26 04:51:00;;;;;;;2.25;0.80;;;;;;;16.81;49.83;102362.91;6285983;22;20419;-79
2023/02/26 04:53:26;;;;;;;1.40;0.80;;;;;;;16.80;49.56;102363.78;6235965;22;20015;-80
2023/02/26 04:55:51;;;;;;;2.47;0.90;;;;;;;16.79;49.86;102364.59;6284517;22;20082;-81
2023/02/26 04:58:17;;;;;;;1.75;0.80;;;;;;;16.80;49.76;102366.38;6233988;22;20015;-81
2023/02/26 05:00:42;;;;;;;1.60;0.70;;;;;;;16.81;49.71;102373.31;6233374;22;20007;-81
2023/02/26 05:03:08;;;;;;;2.10;0.80;;;;;;;16.81;49.54;102363.81;6259839;22;20082;-80
2023/02/26 05:05:34;;;;;;;1.45;0.75;;;;;;;16.83;49.44;102375.13;6260237;22;19999;-81
2023/02/26 05:08:00;;;;;;;1.63;0.60;;;;;;;16.85;49.39;102376.03;6263241;22;20026;-80
2023/02/26 05:10:26;;;;;;;1.38;0.70;;;;;;;16.85;49.37;102381.22;6266788;22;20004;-81
2023/02/26 05:12:51;;;;;;;1.00;0.60;;;;;;;16.86;49.45;102388.16;6294357;22;20027;-81
2023/02/26 05:15:17;;;;;;;1.73;0.77;;;;;;;16.85;49.30;102391.63;6266840;22;20011;-81
2023/02/26 05:17:42;;;;;;;1.58;0.65;;;;;;;16.86;49.17;102392.50;6288549;22;20011;-81
2023/02/26 05:20:09;;;;;;;1.50;0.73;;;;;;;16.86;49.09;102393.34;6287134;22;20003;-81
2023/02/26 05:22:35;;;;;;;2.60;0.77;;;;;;;16.88;48.88;102384.72;6314433;22;20066;-81
2023/02/26 05:25:01;;;;;;;1.63;0.68;;;;;;;16.89;48.94;102384.72;6288114;22;20458;-81
2023/02/26 05:27:26;;;;;;;2.70;0.73;;;;;;;16.89;49.01;102386.47;6287378;22;20025;-81
2023/02/26 05:29:52;;;;;;;1.10;0.60;;;;;;;16.91;48.69;102390.84;6261557;22;20013;-81
2023/02/26 05:32:17;;;;;;;1.45;0.80;;;;;;;16.91;48.84;102392.56;6260938;22;20007;-81
2023/02/26 05:34:43;;;;;;;1.13;0.63;;;;;;;16.90;48.96;102398.59;6261388;22;20011;-81
2023/02/26 05:37:08;;;;;;;3.28;0.60;;;;;;;16.91;48.95;102397.78;6259060;22;20451;-81
2023/02/26 05:39:34;;;;;;;2.13;0.80;;;;;;;16.91;49.09;102401.25;6259244;22;20022;-81
2023/02/26 05:41:59;;;;;;;1.40;0.55;;;;;;;16.92;48.99;102399.50;6285184;22;20007;-81
2023/02/26 05:44:25;;;;;;;1.67;0.65;;;;;;;16.91;48.93;102403.84;6284872;22;20447;-81
2023/02/26 05:46:50;;;;;;;0.90;0.50;;;;;;;16.91;48.80;102398.63;6259664;22;20378;-81
2023/02/26 05:49:15;;;;;;;2.20;0.70;;;;;;;16.90;48.60;102404.69;6284968;22;20011;-81
2023/02/26 05:51:41;;;;;;;1.10;0.60;;;;;;;16.93;48.90;102419.47;6284239;22;20026;-80
2023/02/26 05:54:08;;;;;;;1.63;0.60;;;;;;;16.92;48.91;102423.81;6283505;22;20085;-79
2023/02/26 05:56:34;;;;;;;1.23;0.60;;;;;;;16.95;48.59;102421.25;6282346;22;20015;-80
2023/02/26 06:04:57;;;;;;;0.80;0.50;;;;;;;17.05;48.22;102436.19;6251267;22;20020;-81
2023/02/26 06:07:23;;;;;;;1.98;0.40;;;;;;;17.07;48.21;102438.78;6231006;23;20071;-82
2023/02/26 06:09:49;;;;;;;1.33;0.50;;;;;;;17.09;48.06;102442.28;6203734;23;20087;-81
2023/02/26 06:12:14;;;;;;;0.88;0.50;;;;;;;17.09;48.02;102454.44;6228413;23;20017;-81
2023/02/26 06:14:40;;;;;;;1.70;0.50;;;;;;;17.10;47.96;102453.59;6227634;23;20008;-81
2023/02/26 06:17:06;;;;;;;1.77;0.50;;;;;;;17.12;47.89;102462.31;6204141;23;20004;-81
2023/02/26 06:19:32;;;;;;;1.58;0.70;;;;;;;17.12;48.01;102455.38;6226783;23;20071;-81
2023/02/26 06:21:58;;;;;;;2.20;0.60;;;;;;;17.12;47.76;102471.00;6226456;23;20499;-81
2023/02/26 06:24:24;;;;;;;1.40;0.52;;;;;;;17.13;47.77;102469.25;6225578;23;20008;-80
2023/02/26 06:26:49;;;;;;;1.02;0.50;;;;;;;17.14;47.68;102471.03;6224819;23;19996;-81
2023/02/26 06:29:22;;;;;;;1.10;0.50;;;;;;;17.14;47.58;102479.69;6204628;23;20055;-83
2023/02/26 06:31:48;;;;;;;0.90;0.50;;;;;;;17.13;47.75;102483.13;6254745;23;19997;-81
2023/02/26 06:34:14;;;;;;;1.45;0.50;;;;;;;17.15;47.62;102472.75;6223947;23;20084;-80
2023/02/26 06:36:40;;;;;;;0.98;0.43;;;;;;;17.14;47.38;102491.84;6250635;23;20031;-82
2023/02/26 06:39:06;;;;;;;0.82;0.52;;;;;;;17.15;47.71;102493.56;6224363;23;20004;-81
2023/02/26 06:41:31;;;;;;;0.98;0.50;;;;;;;17.16;47.56;102505.72;6227662;23;20008;-80
2023/02/26 06:43:57;;;;;;;1.00;0.50;;;;;;;17.15;47.74;102511.78;6228593;23;20039;-80
2023/02/26 06:46:22;;;;;;;0.95;0.40;;;;;;;17.17;47.55;102510.09;6201378;23;20012;-81
2023/02/26 06:48:48;;;;;;;1.27;0.57;;;;;;;17.17;47.39;102517.91;6201532;23;20396;-81
2023/02/26 06:51:15;;;;;;;0.98;0.60;;;;;;;17.16;47.52;102510.91;6233850;23;20011;-81
2023/02/26 06:53:40;;;;;;;1.15;0.50;;;;;;;17.17;47.51;102518.75;6242991;23;20015;-81
2023/02/26 06:56:06;;;;;;;1.00;0.50;;;;;;;17.18;47.46;102520.53;6238257;23;20068;-80
2023/02/26 06:58:32;;;;;;;0.63;0.50;;;;;;;17.18;47.45;102527.44;6202587;23;20015;-80
2023/02/26 07:00:57;;;;;;;1.10;0.50;;;;;;;17.18;47.29;102524.84;6226937;23;20325;-80
2023/02/26 07:03:23;;;;;;;0.85;0.47;;;;;;;17.18;47.03;102536.16;6205578;23;20921;-80
2023/02/26 07:05:49;;;;;;;1.25;0.50;;;;;;;17.21;47.09;102545.72;6200257;23;20346;-81
2023/02/26 07:08:15;;;;;;;0.93;0.50;;;;;;;17.21;47.24;102543.13;6174207;23;20008;-80
2023/02/26 07:10:41;;;;;;;1.13;0.50;;;;;;;17.21;47.06;102549.19;6198761;23;20095;-80
2023/02/26 07:13:06;;;;;;;0.80;0.50;;;;;;;17.21;47.14;102558.72;6224756;23;20004;-80
2023/02/26 07:15:32;;;;;;;1.08;0.60;;;;;;;17.21;47.00;102561.34;6224096;23;20012;-80
2023/02/26 07:17:58;;;;;;;1.48;0.60;;;;;;;17.22;47.04;102561.38;6224095;23;20020;-80
2023/02/26 07:20:25;;;;;;;0.90;0.47;;;;;;;17.21;47.03;102556.13;6222253;23;20057;-80
2023/02/26 07:22:51;;;;;;;1.30;0.60;;;;;;;17.20;47.07;102565.66;6224836;23;20062;-80
2023/02/26 07:25:16;;;;;;;1.17;0.50;;;;;;;17.22;47.05;102563.97;6200137;23;20004;-80
2023/02/26 07:27:42;;;;;;;1.27;0.50;;;;;;;17.25;46.94;102568.34;6225794;23;20004;-80
2023/02/26 07:30:08;;;;;;;1.20;0.40;;;;;;;17.24;47.09;102570.06;6225954;23;20333;-80
2023/02/26 07:32:34;;;;;;;1.55;0.57;;;;;;;17.24;46.94;102569.19;6225701;23;20004;-80
2023/02/26 07:34:59;;;;;;;0.90;0.40;;;;;;;17.23;46.78;102578.72;6202362;23;20023;-81
2023/02/26 07:37:25;;;;;;;1.33;0.60;;;;;;;17.19;47.06;102581.25;6231442;23;20012;-81
2023/02/26 07:39:51;;;;;;;1.48;0.50;;;;;;;17.15;47.48;102584.63;6232001;23;20008;-82
2023/02/26 07:58:35;;;;;;;4.40;0.77;;;;;;;17.09;48.11;102603.56;6222160;22;20386;-79
2023/02/26 08:01:37;;;;;;;5.47;0.82;;;;;;;17.09;47.96;102607.91;6331812;22;20025;-82
2023/02/26 08:07:26;;;;;;;1.45;0.60;;;;;;;17.09;48.26;102610.50;6327464;22;20015;-82
2023/02/26 08:09:52;;;;;;;0.95;0.52;;;;;;;17.09;48.32;102608.78;6323529;22;19995;-82
2023/02/26 08:12:17;;;;;;;1.38;0.60;;;;;;;17.09;48.12;102610.50;6293159;22;20003;-80
2023/02/26 08:14:43;;;;;;;2.10;0.70;;;;;;;17.10;48.26;102609.66;6295101;22;19994;-81
2023/02/26 08:18:03;;;;;;;2.95;0.60;;;;;;;17.15;48.10;102614.09;6296243;22;20011;-82
2023/02/26 08:20:52;;;;;;;4.25;0.70;;;;;;;17.22;47.73;102613.41;6291858;22;20003;-82
2023/02/26 08:23:43;;;;;;;2.85;0.93;;;;;;;17.25;47.83;102615.19;6240066;23;20012;-82
2023/02/26 08:26:12;;;;;;;6.75;0.75;;;;;;;17.25;47.83;102623.88;6202821;23;20036;-81
2023/02/26 08:28:47;;;;;;;2.40;0.60;;;;;;;17.27;47.77;102619.56;6234930;23;20047;-82
2023/02/26 08:31:50;;;;;;;1.42;0.60;;;;;;;17.27;48.01;102623.91;6237152;23;20005;-81
2023/02/26 08:34:20;;;;;;;1.35;0.50;;;;;;;17.30;47.99;102633.50;6231264;23;20001;-81
2023/02/26 08:36:46;;;;;;;2.67;0.60;;;;;;;17.31;47.67;102635.22;6178252;23;20424;-81
2023/02/26 08:39:11;;;;;;;1.77;0.60;;;;;;;17.30;47.80;102639.56;6152597;23;20099;-81
2023/02/26 08:41:39;;;;;;;2.33;0.50;;;;;;;17.31;47.64;102643.03;6206125;23;20453;-81
2023/02/26 08:44:07;;;;;;;1.77;0.55;;;;;;;17.36;47.22;102649.22;6163189;23;20004;-81
2023/02/26 08:46:33;;;;;;;4.90;0.70;;;;;;;17.47;47.96;102650.31;6231121;23;20004;-81
2023/02/26 08:48:58;;;;;;;4.18;0.80;;;;;;;17.56;47.53;102654.81;6211923;23;20016;-82
2023/02/26 08:54:49;;;;;;;4.82;0.70;;;;;;;17.53;47.13;102662.56;6235910;23;20076;-82
2023/02/26 08:57:33;;;;;;;3.47;0.88;;;;;;;17.58;47.03;102669.63;6230914;22;20028;-81
2023/02/26 09:03:37;;;;;;;6.07;0.70;;;;;;;17.44;47.37;102684.97;6267581;22;20034;-85
2023/02/26 09:09:10;;;;;;;2.63;0.70;;;;;;;17.41;47.40;102687.50;6147079;23;20094;-81
2023/02/26 09:12:21;;;;;;;1.40;0.60;;;;;;;17.40;47.40;102685.75;6185166;23;20013;-85
2023/02/26 09:15:33;;;;;;;2.25;0.60;;;;;;;17.37;47.43;102692.63;6198723;23;20044;-85
2023/02/26 09:18:39;;;;;;;1.80;0.50;;;;;;;17.35;47.97;102691.69;6211372;23;20024;-84
2023/02/26 09:21:07;;;;;;;2.97;0.60;;;;;;;17.37;47.83;102700.41;6206203;23;20009;-82
2023/02/26 09:23:33;;;;;;;3.83;0.50;;;;;;;17.37;47.75;102701.28;6193452;23;20174;-81
2023/02/26 09:26:47;;;;;;;4.53;0.60;;;;;;;17.36;47.80;102717.75;6172079;23;20005;-83
2023/02/26 09:29:13;;;;;;;5.13;0.80;;;;;;;17.52;50.94;102713.75;6090206;23;20074;-81
2023/02/26 09:31:41;;;;;;;4.53;0.60;;;;;;;17.48;51.90;102719.72;6189724;23;20012;-80
2023/02/26 09:34:06;;;;;;;2.13;0.70;;;;;;;17.44;54.40;102725.72;6141913;23;20481;-80
2023/02/26 09:36:32;;;;;;;4.57;0.70;;;;;;;17.39;52.55;102730.81;6128092;23;20013;-82
2023/02/26 09:38:58;;;;;;;1.85;0.70;;;;;;;17.33;52.47;102733.28;6169811;23;20414;-79
2023/02/26 09:42:00;;;;;;;6.03;0.80;;;;;;;17.27;52.34;102733.19;6167198;23;20017;-81
2023/02/26 09:44:53;;;;;;;1.67;0.60;;;;;;;17.19;53.11;102729.53;6199310;23;20032;-82
2023/02/26 09:47:56;;;;;;;2.25;1.00;;;;;;;17.17;53.36;102739.03;6174772;23;20836;-81
2023/02/26 09:51:01;;;;;;;4.88;1.40;;;;;;;17.18;54.19;102738.16;6202019;23;20057;-82
2023/02/26 09:53:40;;;;;;;9.52;2.58;;;;;;;17.19;54.21;102743.41;6202819;23;20005;-83
2023/02/26 09:56:39;;;;;;;7.93;1.95;;;;;;;17.25;52.92;102753.09;6194553;23;20015;-82
2023/02/26 09:59:09;;;;;;;8.40;1.88;;;;;;;17.31;54.25;102753.22;6217660;22;20035;-80
2023/02/26 10:01:44;;;;;;;10.20;1.80;;;;;;;17.27;54.07;102754.00;6280786;22;20394;-78
2023/02/26 10:04:40;;;;;;;4.47;1.58;;;;;;;17.22;54.85;102756.50;6287355;22;20010;-82
2023/02/26 10:07:45;;;;;;;5.05;1.50;;;;;;;17.18;54.63;102759.88;6291149;22;20059;-80
2023/02/26 10:10:48;;;;;;;4.50;1.50;;;;;;;17.12;55.09;102764.06;6319229;22;20304;-80
2023/02/26 10:13:43;;;;;;;6.75;1.50;;;;;;;17.11;55.72;102764.88;6285606;22;20007;-80
2023/02/26 10:16:13;;;;;;;7.10;1.35;;;;;;;17.10;55.73;102771.81;6272663;22;20033;-80
2023/02/26 10:18:54;;;;;;;6.80;1.15;;;;;;;17.06;55.48;102768.25;6285650;22;20418;-81
2023/02/26 10:21:25;;;;;;;7.43;1.42;;;;;;;17.06;55.57;102781.25;6284986;22;20006;-80
2023/02/26 10:23:57;;;;;;;4.10;1.10;;;;;;;17.04;56.58;102784.69;6285272;22;20427;-80
2023/02/26 10:26:31;;;;;;;9.25;1.30;;;;;;;17.02;54.31;102788.97;6284999;22;20367;-80
2023/02/26 10:29:21;;;;;;;48.35;2.40;;;;;;;16.98;58.11;102787.13;6284661;22;20003;-78
2023/02/26 10:32:05;;;;;;;19.25;1.90;;;;;;;16.89;59.05;102792.13;6282128;22;20429;-78
2023/02/26 10:34:53;;;;;;;8.80;1.13;;;;;;;16.85;60.04;102796.34;6281770;22;20007;-79
2023/02/26 10:37:27;;;;;;;4.90;1.40;;;;;;;16.82;60.40;102802.34;6309228;22;20038;-79
2023/02/26 10:40:23;;;;;;;7.22;1.50;;;;;;;16.77;60.15;102809.13;6281857;22;20014;-79
2023/02/26 10:42:58;;;;;;;4.05;1.08;;;;;;;16.72;59.72;102809.84;6281913;22;20003;-79
2023/02/26 10:45:41;;;;;;;3.83;1.00;;;;;;;16.69;59.87;102807.19;6281686;22;20027;-79
2023/02/26 10:48:34;;;;;;;3.05;1.10;;;;;;;16.66;59.50;102813.19;6281958;22;20061;-79
2023/02/26 10:51:16;;;;;;;4.40;1.10;;;;;;;16.64;59.54;102813.16;6283039;22;20446;-79
2023/02/26 10:53:48;;;;;;;5.82;1.05;;;;;;;16.62;59.32;102812.22;6309177;22;20030;-79
2023/02/26 10:56:19;;;;;;;3.72;1.00;;;;;;;16.64;59.14;102815.75;6281941;22;20444;-79
2023/02/26 10:58:45;;;;;;;3.83;1.17;;;;;;;16.63;59.24;102821.78;6283088;22;20008;-79
2023/02/26 11:01:19;;;;;;;2.22;0.80;;;;;;;16.62;59.17;102820.03;6256742;22;20023;-78
2023/02/26 11:03:53;;;;;;;3.60;0.90;;;;;;;16.63;59.17;102826.09;6282089;22;20309;-79
2023/02/26 11:06:30;;;;;;;2.72;0.90;;;;;;;16.63;58.87;102826.09;6282009;22;20003;-79
2023/02/26 11:08:58;;;;;;;2.80;0.90;;;;;;;16.65;58.91;102827.00;6309136;22;19999;-79
2023/02/26 11:11:47;;;;;;;2.78;0.93;;;;;;;16.63;58.99;102829.56;6282122;22;20007;-79
2023/02/26 11:14:14;;;;;;;2.45;0.90;;;;;;;16.63;58.75;102826.97;6282297;22;20011;-78
2023/02/26 11:16:57;;;;;;;3.28;0.85;;;;;;;16.64;58.90;102822.66;6282116;22;20003;-79
2023/02/26 11:19:30;;;;;;;4.15;0.80;;;;;;;16.64;59.11;102823.53;6282134;22;20009;-79
2023/02/26 11:21:57;;;;;;;1.45;0.73;;;;;;;16.63;58.89;102824.38;6282488;22;20407;-79
2023/02/26 11:24:50;;;;;;;2.30;0.82;;;;;;;16.65;58.87;102827.88;6282307;22;20459;-79
2023/02/26 11:27:36;;;;;;;4.03;0.77;;;;;;;16.67;59.05;102830.53;6277087;22;20099;-79
2023/02/26 11:30:13;;;;;;;2.03;0.90;;;;;;;16.66;59.02;102827.06;6281548;22;20034;-79
2023/02/26 11:32:39;;;;;;;1.45;0.70;;;;;;;16.67;58.80;102827.94;6281473;22;20383;-79
2023/02/26 11:35:08;;;;;;;1.83;0.70;;;;;;;16.67;58.71;102823.59;6255742;22;20015;-79
2023/02/26 11:37:37;;;;;;;2.90;0.85;;;;;;;16.66;58.98;102821.88;6280895;22;20011;-79
2023/02/26 11:40:12;;;;;;;3.20;0.80;;;;;;;16.69;59.10;102820.19;6308312;22;20007;-79
2023/02/26 11:42:48;;;;;;;3.00;0.80;;;;;;;16.70;58.82;102819.34;6280918;22;20450;-79
2023/02/26 11:45:16;;;;;;;1.67;0.82;;;;;;;16.71;59.19;102818.50;6280852;22;20424;-79
2023/02/26 11:47:43;;;;;;;2.00;0.80;;;;;;;16.71;59.01;102819.38;6281305;22;20006;-80
2023/02/26 11:50:21;;;;;;;2.45;0.80;;;;;;;16.70;58.83;102814.13;6281000;22;20018;-79
2023/02/26 11:52:55;;;;;;;1.70;0.90;;;;;;;16.71;59.16;102821.97;6256090;22;20011;-79
2023/02/26 11:55:21;;;;;;;1.85;0.85;;;;;;;16.71;59.34;102815.91;6280602;22;20086;-79
2023/02/26 11:57:52;;;;;;;2.08;0.70;;;;;;;16.71;58.93;102814.19;6308512;22;20057;-79
2023/02/26 12:00:24;;;;;;;2.00;0.85;;;;;;;16.71;58.81;102813.31;6308373;22;20016;-79
2023/02/26 12:02:50;;;;;;;1.45;0.65;;;;;;;16.72;58.84;102812.44;6280744;22;20432;-79
2023/02/26 12:05:17;;;;;;;2.05;0.80;;;;;;;16.72;58.86;102812.44;6281064;22;20323;-79
2023/02/26 12:07:45;;;;;;;1.63;0.85;;;;;;;16.75;58.81;102812.56;6285537;22;20007;-80
2023/02/26 12:10:25;;;;;;;1.65;0.60;;;;;;;16.74;58.90;102810.78;6296700;22;20038;-79
2023/02/26 12:13:08;;;;;;;1.60;0.70;;;;;;;16.73;58.98;102809.91;6298277;22;20014;-79
2023/02/26 12:15:48;;;;;;;1.08;0.57;;;;;;;16.76;58.88;102806.50;6293122;22;20012;-79
2023/02/26 12:18:26;;;;;;;1.27;0.45;;;;;;;16.76;58.78;102811.69;6294146;22;20014;-79
2023/02/26 12:21:05;;;;;;;1.10;0.70;;;;;;;16.75;59.05;102812.56;6294843;22;20003;-80
2023/02/26 12:23:54;;;;;;;1.40;0.70;;;;;;;16.76;58.81;102804.78;6290622;22;20011;-79
2023/02/26 12:26:32;;;;;;;1.00;0.52;;;;;;;16.77;58.72;102819.53;6290690;22;20038;-79
2023/02/26 12:29:20;;;;;;;1.67;0.52;;;;;;;16.81;59.38;102810.13;6290338;22;20007;-79